createdAt,value
2023-08-09T00:02:03.909Z,99.9
2023-08-09T00:04:07.747Z,99.9
2023-08-09T00:06:11.577Z,99.9
2023-08-09T00:08:15.442Z,99.9
2023-08-09T00:12:23.101Z,99.9
2023-08-09T00:14:26.931Z,99.9
2023-08-09T00:18:37.840Z,99.9
2023-08-09T00:24:49.342Z,99.9
2023-08-09T00:26:53.176Z,99.9
2023-08-09T00:28:57.001Z,99.9
2023-08-09T00:31:04.139Z,99.9
2023-08-09T00:33:08.000Z,99.9
2023-08-09T00:35:11.759Z,99.9
2023-08-09T00:37:15.598Z,99.9
2023-08-09T00:39:19.461Z,99.9
2023-08-09T00:43:27.090Z,99.9
2023-08-09T00:45:34.244Z,99.9
2023-08-09T00:50:45.413Z,99.9
2023-08-09T00:52:49.282Z,99.9
2023-08-09T00:54:53.098Z,99.9
2023-08-09T00:59:04.033Z,99.9
2023-08-09T01:05:15.550Z,99.9
2023-08-09T01:07:19.385Z,99.9
2023-08-09T01:23:53.380Z,99.9
2023-08-09T01:25:57.185Z,99.9
2023-08-09T01:28:04.321Z,99.9
2023-08-09T01:30:08.163Z,99.9
2023-08-09T01:32:11.980Z,99.9
2023-08-09T01:34:15.846Z,99.9
2023-08-09T01:36:19.667Z,99.9
2023-08-09T01:38:23.469Z,99.9
2023-08-09T01:40:27.334Z,99.9
2023-08-09T01:49:00.499Z,99.9
2023-08-09T01:51:04.319Z,99.9
2023-08-09T01:53:08.240Z,99.9
2023-08-09T01:55:15.318Z,99.9
2023-08-09T02:01:26.785Z,99.9
2023-08-09T02:09:45.389Z,99.9
2023-08-09T02:11:49.250Z,99.9
2023-08-09T02:13:53.078Z,99.9
2023-08-09T02:20:04.596Z,99.9
2023-08-09T02:22:08.405Z,99.9
2023-08-09T02:24:15.504Z,99.9
2023-08-09T02:28:23.188Z,99.9
2023-08-09T02:32:30.873Z,99.9
2023-08-09T02:43:56.827Z,99.9
2023-08-09T02:46:00.710Z,99.9
2023-08-09T02:48:04.509Z,99.9
2023-08-09T02:50:08.336Z,99.9
2023-08-09T02:56:23.097Z,99.9
2023-08-09T03:00:30.781Z,99.9
2023-08-09T03:08:49.374Z,99.9
2023-08-09T03:10:53.214Z,99.9
2023-08-09T03:12:57.057Z,99.9
2023-08-09T03:15:00.881Z,99.9
2023-08-09T03:21:15.732Z,99.9
2023-08-09T03:23:19.541Z,99.9
2023-08-09T03:25:23.374Z,99.9
2023-08-09T03:27:27.203Z,99.9
2023-08-09T03:29:31.025Z,99.9
2023-08-09T03:31:34.899Z,99.9
2023-08-09T03:33:38.728Z,99.9
2023-08-09T03:35:45.807Z,99.9
2023-08-09T03:37:49.677Z,99.9
2023-08-09T03:39:53.508Z,99.9
2023-08-09T03:40:57.038Z,99.9
2023-08-09T03:45:04.715Z,99.9
2023-08-09T03:47:08.538Z,99.9
2023-08-09T03:49:16.683Z,99.9
2023-08-09T03:51:19.498Z,99.9
2023-08-09T03:55:27.217Z,99.9
2023-08-09T03:57:31.088Z,99.9
2023-08-09T04:07:55.085Z,99.9
2023-08-09T04:09:58.934Z,99.9
2023-08-09T04:20:21.357Z,99.9
2023-08-09T04:22:25.181Z,99.9
2023-08-09T04:28:36.667Z,99.9
2023-08-09T04:37:58.818Z,99.9
2023-08-09T04:40:02.639Z,99.9
2023-08-09T04:44:10.329Z,99.9
2023-08-09T04:46:17.382Z,99.9
2023-08-09T04:48:21.217Z,99.9
2023-08-09T04:50:25.047Z,99.9
2023-08-09T04:52:28.875Z,99.9
2023-08-09T05:00:47.453Z,99.9
2023-08-09T05:02:51.279Z,99.9
2023-08-09T05:04:55.111Z,99.9
2023-08-09T05:06:58.924Z,99.9
2023-08-09T05:11:06.590Z,99.9
2023-08-09T05:13:10.406Z,99.9
2023-08-09T05:17:21.355Z,99.9
2023-08-09T05:21:29.013Z,99.9
2023-08-09T05:25:36.662Z,99.9
2023-08-09T05:27:40.483Z,99.9
2023-08-09T05:33:55.214Z,99.9
2023-08-09T05:36:19.972Z,99.9
2023-08-09T05:40:27.610Z,99.9
2023-08-09T05:42:34.697Z,99.9
2023-08-09T05:44:38.539Z,99.9
2023-08-09T05:46:42.402Z,99.9
2023-08-09T05:48:46.158Z,99.9
2023-08-09T05:50:49.996Z,99.9
2023-08-09T05:52:53.832Z,99.9
2023-08-09T05:54:57.666Z,99.9
2023-08-09T05:57:04.921Z,99.9
2023-08-09T05:59:08.551Z,99.9
2023-08-09T06:01:12.439Z,99.9
2023-08-09T06:03:16.259Z,99.9
2023-08-09T06:05:20.054Z,99.9
2023-08-09T06:07:23.893Z,99.9
2023-08-09T06:13:38.674Z,99.9
2023-08-09T06:15:42.494Z,99.9
2023-08-09T06:17:46.383Z,99.9
2023-08-09T06:19:50.141Z,99.9
2023-08-09T06:21:54.120Z,99.9
2023-08-09T06:23:57.791Z,99.9
2023-08-09T06:26:04.898Z,99.9
2023-08-09T06:28:08.682Z,99.9
2023-08-09T06:30:12.476Z,99.9
2023-08-09T06:31:16.098Z,99.9
2023-08-09T06:37:27.543Z,99.9
2023-08-09T06:39:34.637Z,99.9
2023-08-09T06:43:42.271Z,99.9
2023-08-09T06:45:46.080Z,99.9
2023-08-09T06:47:49.964Z,99.9
2023-08-09T06:49:53.723Z,99.9
2023-08-09T06:51:57.557Z,99.9
2023-08-09T06:56:08.500Z,99.9
2023-08-09T06:58:12.307Z,99.9
2023-08-09T07:02:19.950Z,99.9
2023-08-09T07:04:23.842Z,99.9
2023-08-09T07:10:38.568Z,99.9
2023-08-09T07:12:42.356Z,99.9
2023-08-09T07:14:46.158Z,99.9
2023-08-09T07:18:53.811Z,99.9
2023-08-09T07:23:04.733Z,99.9
2023-08-09T07:25:08.533Z,99.9
2023-08-09T07:28:15.874Z,99.9
2023-08-09T07:30:19.671Z,99.9
2023-08-09T07:32:23.485Z,99.9
2023-08-09T07:34:27.265Z,99.9
2023-08-09T07:36:34.382Z,99.9
2023-08-09T07:38:38.192Z,99.9
2023-08-09T07:40:42.004Z,99.9
2023-08-09T07:42:45.917Z,99.9
2023-08-09T07:44:49.591Z,99.9
2023-08-09T07:46:53.384Z,99.9
2023-08-09T07:48:57.203Z,99.9
2023-08-09T07:51:04.297Z,99.9
2023-08-09T07:53:08.096Z,99.9
2023-08-09T07:55:11.870Z,99.9
2023-08-09T07:57:15.654Z,99.9
2023-08-09T07:59:19.434Z,99.9
2023-08-09T08:01:23.246Z,99.9
2023-08-09T08:03:27.041Z,99.9
2023-08-09T08:05:34.060Z,99.9
2023-08-09T08:07:37.848Z,99.9
2023-08-09T08:09:41.637Z,99.9
2023-08-09T08:11:45.422Z,99.9
2023-08-09T08:13:49.203Z,99.9
2023-08-09T08:15:52.927Z,99.9
2023-08-09T08:20:03.752Z,99.8
2023-08-09T08:22:07.500Z,99.8
2023-08-09T08:25:14.783Z,99.8
2023-08-09T08:31:26.055Z,99.9
2023-08-09T08:33:33.076Z,99.9
2023-08-09T08:35:36.792Z,99.9
2023-08-09T08:37:40.523Z,99.9
2023-08-09T08:41:48.156Z,99.9
2023-08-09T08:50:06.287Z,98.5
2023-08-09T08:52:10.008Z,98.5
2023-08-09T08:54:13.778Z,98.8
2023-08-09T09:23:39.313Z,99.9
2023-08-09T09:25:43.067Z,99.9
2023-08-09T09:27:46.772Z,99.9
2023-08-09T09:29:53.790Z,99.9
2023-08-09T09:31:57.572Z,99.9
2023-08-09T09:34:01.337Z,99.9
2023-08-09T09:38:08.838Z,99.9
2023-08-09T09:40:12.613Z,99.9
2023-08-09T09:42:16.338Z,99.9
2023-08-09T09:44:23.395Z,99.9
2023-08-09T09:46:36.193Z,99.9
2023-08-09T09:48:31.070Z,99.9
2023-08-09T09:50:34.698Z,99.9
2023-08-09T09:52:38.460Z,99.9
2023-08-09T09:56:45.970Z,99.9
2023-08-09T10:03:02.158Z,99.9
2023-08-09T10:05:05.893Z,99.9
2023-08-09T10:11:17.119Z,99.9
2023-08-09T10:13:24.167Z,99.9
2023-08-09T10:15:27.902Z,99.9
2023-08-09T10:17:31.786Z,99.9
2023-08-09T10:22:42.949Z,99.9
2023-08-09T10:26:53.449Z,99.9
2023-08-09T10:28:57.207Z,99.9
2023-08-09T10:31:01.033Z,99.9
2023-08-09T10:33:04.760Z,99.9
2023-08-09T10:35:08.489Z,99.9
2023-08-09T10:37:12.248Z,99.9
2023-08-09T10:39:16.012Z,99.9
2023-08-09T10:47:34.358Z,99.9
2023-08-09T10:53:46.208Z,99.9
2023-08-09T10:55:53.239Z,99.9
2023-08-09T10:57:56.967Z,99.9
2023-08-09T11:00:00.705Z,99.9
2023-08-09T11:02:04.787Z,99.9
2023-08-09T11:06:12.047Z,99.9
2023-08-09T11:08:15.734Z,99.9
2023-08-09T11:10:22.806Z,99.9
2023-08-09T11:12:26.500Z,99.9
2023-08-09T11:17:37.518Z,99.9
2023-08-09T11:19:41.276Z,99.9
2023-08-09T11:27:59.556Z,99.9
2023-08-09T11:30:03.305Z,99.9
2023-08-09T11:38:21.649Z,99.9
2023-08-09T11:40:25.406Z,99.9
2023-08-09T11:42:29.191Z,99.9
2023-08-09T11:50:44.202Z,99.9
2023-08-09T11:52:51.237Z,99.9
2023-08-09T11:59:03.170Z,99.9
2023-08-09T12:01:06.275Z,99.9
2023-08-09T12:03:10.009Z,99.9
2023-08-09T12:05:13.731Z,99.9
2023-08-09T12:12:31.798Z,99.9
2023-08-09T12:14:35.524Z,99.9
2023-08-09T12:16:39.299Z,99.9
2023-08-09T12:18:42.988Z,99.9
2023-08-09T12:20:50.040Z,99.9
2023-08-09T12:39:26.989Z,99.9
2023-08-09T12:41:30.733Z,99.9
2023-08-09T12:43:34.470Z,99.9
2023-08-09T12:56:00.044Z,99.9
2023-08-09T13:00:07.493Z,99.8
2023-08-09T13:02:11.213Z,99.8
2023-08-09T13:04:18.259Z,99.5
2023-08-09T13:06:21.959Z,99.2
2023-08-09T13:08:25.699Z,97.7
2023-08-09T13:14:57.921Z,96.5
2023-08-09T13:17:05.020Z,97.7
2023-08-09T13:21:14.233Z,98
2023-08-09T13:23:16.083Z,98
2023-08-09T13:25:19.786Z,97.8
2023-08-09T13:27:23.522Z,97.8
2023-08-09T13:29:27.210Z,97.9
2023-08-09T13:31:34.273Z,98.8
2023-08-09T13:33:38.019Z,99.4
2023-08-09T13:35:41.680Z,99.5
2023-08-09T13:50:10.996Z,99.8
2023-08-09T13:52:14.786Z,99.8
2023-08-09T13:54:18.421Z,99.8
2023-08-09T13:56:22.141Z,99.8
2023-08-09T13:58:25.857Z,99.8
2023-08-09T14:02:36.677Z,99.9
2023-08-09T14:04:40.303Z,99.9
2023-08-09T14:05:43.813Z,99.9
2023-08-09T14:11:55.021Z,99.9
2023-08-09T14:14:02.003Z,99.9
2023-08-09T14:16:05.847Z,99.9
2023-08-09T14:18:09.519Z,99.9
2023-08-09T14:20:13.211Z,99.9
2023-08-09T14:22:16.965Z,99.9
2023-08-09T14:26:24.421Z,99.9
2023-08-09T14:30:35.199Z,99.9
2023-08-09T14:32:38.976Z,99.9
2023-08-09T14:34:42.658Z,99.9
2023-08-09T14:36:46.424Z,99.9
2023-08-09T14:38:50.182Z,99.9
2023-08-09T14:40:53.894Z,99.9
2023-08-09T14:43:00.934Z,99.9
2023-08-09T14:45:04.725Z,99.9
2023-08-09T14:47:08.452Z,99.9
2023-08-09T14:49:12.176Z,99.9
2023-08-09T14:51:15.902Z,99.9
2023-08-09T14:53:19.673Z,99.9
2023-08-09T14:55:23.384Z,99.9
2023-08-09T14:57:30.436Z,99.9
2023-08-09T14:59:34.176Z,99.9
2023-08-09T15:02:44.325Z,99.9
2023-08-09T15:06:48.912Z,99.9
2023-08-09T15:08:52.701Z,99.9
2023-08-09T15:10:59.702Z,99.9
2023-08-09T15:13:03.432Z,99.9
2023-08-09T15:15:07.187Z,99.9
2023-08-09T15:17:23.704Z,99.9
2023-08-09T15:19:14.668Z,99.9
2023-08-09T15:21:18.417Z,99.9
2023-08-09T15:23:22.161Z,99.9
2023-08-09T15:25:29.165Z,99.9
2023-08-09T15:27:32.939Z,99.9
2023-08-09T15:31:40.405Z,99.9
2023-08-09T15:33:44.161Z,99.9
2023-08-09T15:35:47.912Z,99.9
2023-08-09T15:37:51.651Z,99.9
2023-08-09T15:39:58.681Z,99.9
2023-08-09T15:42:15.683Z,99.9
2023-08-09T15:46:09.901Z,99.9
2023-08-09T15:50:17.476Z,99.9
2023-08-09T15:52:21.367Z,99.9
2023-08-09T15:54:28.220Z,99.9
2023-08-09T15:59:40.850Z,99.9
2023-08-09T16:03:48.443Z,99.9
2023-08-09T16:05:52.113Z,99.9
2023-08-09T16:07:59.164Z,99.9
2023-08-09T16:10:02.914Z,99.9
2023-08-09T16:12:06.699Z,99.9
2023-08-09T16:14:10.455Z,99.9
2023-08-09T16:16:28.211Z,99.9
2023-08-09T16:18:18.025Z,99.9
2023-08-09T16:20:21.762Z,99.9
2023-08-09T16:22:28.785Z,99.9
2023-08-09T16:28:40.664Z,99.9
2023-08-09T16:32:48.183Z,99.9
2023-08-09T16:34:51.940Z,99.9
2023-08-09T16:36:59.021Z,99.9
2023-08-09T16:41:06.514Z,99.9
2023-08-09T16:43:10.293Z,99.9
2023-08-09T16:45:14.054Z,99.9
2023-08-09T16:47:17.812Z,99.9
2023-08-09T16:49:21.576Z,99.9
2023-08-09T16:51:28.647Z,99.9
2023-08-09T16:53:32.417Z,99.7
2023-08-09T16:55:36.158Z,99.7
2023-08-09T16:58:06.399Z,99.7
2023-08-09T17:00:10.203Z,99.7
2023-08-09T17:02:13.938Z,99.7
2023-08-09T17:06:24.799Z,99.9
2023-08-09T17:08:28.567Z,99.9
2023-08-09T17:10:32.329Z,99.9
2023-08-09T17:12:36.098Z,99.9
2023-08-09T17:16:43.742Z,99.9
2023-08-09T17:18:50.740Z,99.9
2023-08-09T17:20:54.493Z,99.9
2023-08-09T17:22:58.308Z,99.9
2023-08-09T17:25:02.077Z,99.9
2023-08-09T17:27:05.872Z,99.9
2023-08-09T17:29:09.645Z,99.9
2023-08-09T17:33:20.491Z,99.9
2023-08-09T17:35:24.253Z,99.9
2023-08-09T17:37:28.062Z,99.9
2023-08-09T17:45:43.246Z,99.9
2023-08-09T17:47:50.325Z,99.9
2023-08-09T17:49:54.058Z,99.9
2023-08-09T17:53:01.395Z,99.9
2023-08-09T17:55:05.195Z,99.9
2023-08-09T18:01:19.945Z,99.9
2023-08-09T18:03:23.654Z,99.9
2023-08-09T18:05:27.472Z,99.9
2023-08-09T18:07:31.259Z,99.9
2023-08-09T18:09:35.057Z,99.9
2023-08-09T18:15:49.807Z,99.9
2023-08-09T18:17:53.567Z,99.9
2023-08-09T18:19:57.295Z,99.9
2023-08-09T18:24:04.921Z,99.9
2023-08-09T18:26:08.692Z,99.9
2023-08-09T18:28:12.489Z,99.9
2023-08-09T18:30:19.586Z,99.9
2023-08-09T18:32:23.409Z,99.9
2023-08-09T18:34:27.211Z,99.9
2023-08-09T18:38:34.845Z,99.9
2023-08-09T18:40:38.644Z,99.9
2023-08-09T18:42:42.455Z,99.9
2023-08-09T18:44:49.541Z,99.9
2023-08-09T18:46:53.324Z,99.9
2023-08-09T18:48:57.153Z,99.9
2023-08-09T18:58:19.238Z,99.9
2023-08-09T19:00:23.045Z,99.9
2023-08-09T19:02:26.860Z,99.9
2023-08-09T19:08:38.308Z,99.9
2023-08-09T19:10:42.138Z,99.9
2023-08-09T19:12:49.219Z,99.9
2023-08-09T19:14:53.044Z,99.9
2023-08-09T19:19:00.673Z,99.9
2023-08-09T19:23:08.351Z,99.9
2023-08-09T19:25:12.154Z,99.9
2023-08-09T19:27:19.236Z,99.9
2023-08-09T19:29:23.049Z,99.9
2023-08-09T19:31:26.936Z,99.9
2023-08-09T19:33:30.674Z,99.9
2023-08-09T19:35:34.500Z,99.9
2023-08-09T19:37:38.385Z,99.9
2023-08-09T19:39:42.139Z,99.9
2023-08-09T19:47:00.490Z,99.9
2023-08-09T19:49:06.356Z,99.9
2023-08-09T19:51:08.105Z,99.9
2023-08-09T19:53:11.953Z,99.9
2023-08-09T19:55:19.042Z,99.9
2023-08-09T19:57:22.845Z,99.9
2023-08-09T19:59:26.695Z,99.9
2023-08-09T20:01:30.550Z,99.9
2023-08-09T20:03:35.024Z,99.9
2023-08-09T20:05:38.844Z,99.9
2023-08-09T20:07:42.675Z,99.9
2023-08-09T20:09:49.774Z,99.9
2023-08-09T20:11:53.589Z,99.9
2023-08-09T20:13:57.449Z,99.9
2023-08-09T20:16:01.274Z,99.9
2023-08-09T20:20:08.928Z,99.9
2023-08-09T20:26:23.690Z,99.9
2023-08-09T20:28:27.493Z,99.9
2023-08-09T20:30:31.355Z,99.9
2023-08-09T20:34:39.011Z,99.9
2023-08-09T20:36:42.876Z,99.9
2023-08-09T20:38:49.975Z,99.9
2023-08-09T20:42:57.649Z,99.9
2023-08-09T20:45:26.234Z,99.9
2023-08-09T20:49:33.873Z,99.9
2023-08-09T20:51:40.971Z,99.9
2023-08-09T20:53:44.831Z,99.9
2023-08-09T20:55:48.633Z,99.9
2023-08-09T20:57:52.472Z,99.9
2023-08-09T20:59:56.314Z,99.9
2023-08-09T21:02:00.160Z,99.9
2023-08-09T21:04:03.988Z,99.9
2023-08-09T21:06:11.137Z,99.9
2023-08-09T21:08:14.917Z,99.9
2023-08-09T21:10:18.728Z,99.9
2023-08-09T21:16:30.252Z,99.9
2023-08-09T21:20:41.138Z,99.9
2023-08-09T21:26:52.599Z,99.9
2023-08-09T21:28:56.412Z,99.9
2023-08-09T21:33:04.077Z,99.9
2023-08-09T21:35:11.167Z,99.9
2023-08-09T21:37:14.974Z,99.9
2023-08-09T21:39:18.824Z,99.9
2023-08-09T21:40:22.353Z,99.9
2023-08-09T21:52:48.573Z,99.9
2023-08-09T21:54:54.056Z,99.9
2023-08-09T21:59:01.688Z,99.9
2023-08-09T22:05:16.440Z,99.9
2023-08-09T22:37:24.174Z,99.9
2023-08-09T22:39:28.031Z,99.9
2023-08-09T22:41:31.840Z,99.9
2023-08-09T22:43:35.716Z,99.9
2023-08-09T22:45:42.813Z,99.9
2023-08-09T22:51:54.326Z,99.9
2023-08-09T22:56:02.017Z,99.9
2023-08-09T22:58:05.854Z,99.9
2023-08-09T23:00:12.950Z,99.9
2023-08-09T23:02:16.849Z,99.9
2023-08-09T23:04:20.634Z,99.9
2023-08-09T23:06:24.475Z,99.9
2023-08-09T23:08:28.342Z,99.9
2023-08-09T23:10:32.133Z,99.9
2023-08-09T23:12:36.008Z,99.9
2023-08-09T23:14:43.114Z,99.9
2023-08-09T23:16:46.954Z,99.9
2023-08-09T23:18:50.788Z,99.9
2023-08-09T23:20:54.648Z,99.9
2023-08-09T23:22:58.471Z,99.9
2023-08-09T23:25:02.316Z,99.9
2023-08-09T23:27:06.159Z,99.9
2023-08-09T23:29:13.869Z,99.9
2023-08-09T23:31:17.738Z,99.9
2023-08-09T23:33:21.555Z,99.9
2023-08-09T23:34:25.121Z,99.9
2023-08-09T23:40:36.619Z,99.9
2023-08-09T23:48:55.255Z,99.9
2023-08-09T23:50:59.073Z,99.9
2023-08-09T23:53:02.939Z,99.9
